Time;durP1;ratioP1;P1;durP2;ratioP2;P2;SDS_P1;SDS_P2;PMS_P1;PMS_P2;Temp;Humidity;BMP_temperature;BMP_pressure;BME280_temperature;BME280_humidity;BME280_pressure;Samples;Min_cycle;Max_cycle;Signal;HPM_P1;HPM_P2
2021/01/12 00:00:31;;;;;;;;;35.25;31.25;;;;;;;;12124044;29;9656;-57
2021/01/12 00:06:32;;;;;;;;;33.25;31.25;;;;;;;;12118325;29;8859;-56
2021/01/12 00:12:34;;;;;;;;;25.25;22.50;;;;;;;;12120560;29;8852;-54
2021/01/12 00:18:36;;;;;;;;;33.50;32.00;;;;;;;;12116622;29;8958;-55
2021/01/12 00:24:38;;;;;;;;;37.50;30.25;;;;;;;;12123816;29;8863;-55
2021/01/12 00:30:39;;;;;;;;;35.00;28.00;;;;;;;;12121171;29;8843;-55
2021/01/12 00:36:46;;;;;;;;;31.00;30.50;;;;;;;;12117838;29;8862;-54
2021/01/12 00:42:50;;;;;;;;;44.25;32.75;;;;;;;;12120737;29;9597;-54
2021/01/12 00:48:51;;;;;;;;;33.75;30.50;;;;;;;;12115806;29;8963;-54
2021/01/12 00:54:53;;;;;;;;;33.50;30.75;;;;;;;;12122905;29;8878;-54
2021/01/12 01:00:54;;;;;;;;;44.25;38.50;;;;;;;;12126296;29;8849;-55
2021/01/12 01:06:56;;;;;;;;;35.50;29.50;;;;;;;;12113248;29;8919;-56
2021/01/12 01:12:57;;;;;;;;;34.50;31.50;;;;;;;;12250690;23;8896;-55
2021/01/12 01:18:59;;;;;;;;;34.75;33.50;;;;;;;;12236956;29;8967;-55
2021/01/12 01:25:01;;;;;;;;;37.75;29.00;;;;;;;;12236869;29;8841;-53
2021/01/12 01:31:02;;;;;;;;;37.00;28.50;;;;;;;;12238022;28;9546;-54
2021/01/12 01:37:04;;;;;;;;;34.75;29.00;;;;;;;;12240214;29;8988;-54
2021/01/12 01:43:06;;;;;;;;;34.25;27.00;;;;;;;;12239963;29;8841;-54
2021/01/12 01:49:07;;;;;;;;;38.25;33.50;;;;;;;;12229481;29;9637;-55
2021/01/12 01:55:09;;;;;;;;;30.50;28.25;;;;;;;;12231731;29;8857;-54
2021/01/12 02:01:10;;;;;;;;;38.25;33.50;;;;;;;;12231450;28;8857;-54
2021/01/12 02:07:20;;;;;;;;;33.50;30.25;;;;;;;;12224008;29;8934;-55
2021/01/12 02:13:25;;;;;;;;;39.75;31.00;;;;;;;;12209407;29;8900;-54
2021/01/12 02:19:27;;;;;;;;;40.00;36.25;;;;;;;;12171583;29;8847;-54
2021/01/12 02:25:35;;;;;;;;;32.33;29.67;;;;;;;;12176455;29;8870;-52
2021/01/12 02:31:36;;;;;;;;;48.00;38.00;;;;;;;;12166879;29;9010;-54
2021/01/12 02:37:39;;;;;;;;;29.75;28.00;;;;;;;;12169857;29;8903;-55
2021/01/12 02:43:42;;;;;;;;;39.25;37.50;;;;;;;;12171198;29;8871;-53
2021/01/12 02:49:43;;;;;;;;;41.25;35.50;;;;;;;;12168807;29;8847;-55
2021/01/12 02:55:45;;;;;;;;;46.00;40.00;;;;;;;;12174428;29;8950;-54
2021/01/12 03:01:48;;;;;;;;;44.00;38.00;;;;;;;;12165804;29;8900;-55
2021/01/12 03:07:51;;;;;;;;;46.50;40.75;;;;;;;;12170313;29;8911;-56
2021/01/12 03:13:53;;;;;;;;;32.75;22.50;;;;;;;;12167384;29;8859;-54
2021/01/12 03:19:54;;;;;;;;;40.50;35.50;;;;;;;;12167725;29;8877;-54
2021/01/12 03:25:56;;;;;;;;;43.00;35.75;;;;;;;;12173487;29;8846;-54
2021/01/12 03:31:57;;;;;;;;;38.75;32.50;;;;;;;;12163402;29;8899;-54
2021/01/12 03:37:59;;;;;;;;;43.00;35.33;;;;;;;;12170734;29;8859;-54
2021/01/12 03:44:00;;;;;;;;;39.33;36.00;;;;;;;;12164674;29;8965;-55
2021/01/12 03:50:04;;;;;;;;;58.25;42.50;;;;;;;;12165991;29;8864;-55
2021/01/12 03:56:06;;;;;;;;;42.33;34.67;;;;;;;;12172563;29;8833;-54
2021/01/12 04:02:08;;;;;;;;;44.67;35.00;;;;;;;;12164172;29;8841;-55
2021/01/12 04:08:11;;;;;;;;;52.25;41.50;;;;;;;;12170319;29;9635;-54
2021/01/12 04:14:15;;;;;;;;;50.33;45.33;;;;;;;;12163639;29;8867;-55
2021/01/12 04:20:16;;;;;;;;;46.33;40.67;;;;;;;;12164089;29;8857;-55
2021/01/12 04:26:18;;;;;;;;;42.67;36.00;;;;;;;;12169730;29;8872;-55
2021/01/12 04:32:19;;;;;;;;;43.67;33.67;;;;;;;;12167504;29;9598;-54
2021/01/12 04:38:20;;;;;;;;;52.33;45.67;;;;;;;;12179239;29;8843;-55
2021/01/12 04:44:22;;;;;;;;;43.75;41.50;;;;;;;;12171511;29;8835;-55
2021/01/12 04:50:23;;;;;;;;;42.00;34.00;;;;;;;;12172784;29;8861;-55
2021/01/12 04:56:25;;;;;;;;;48.50;39.50;;;;;;;;12176009;29;8837;-55
2021/01/12 05:02:27;;;;;;;;;48.50;42.75;;;;;;;;12610807;23;8956;-49
2021/01/12 05:08:29;;;;;;;;;38.00;36.50;;;;;;;;12231014;29;8890;-45
2021/01/12 05:14:32;;;;;;;;;45.00;39.67;;;;;;;;12238007;29;8841;-45
2021/01/12 05:20:37;;;;;;;;;44.33;40.00;;;;;;;;12235282;29;8873;-48
2021/01/12 05:26:39;;;;;;;;;51.00;44.33;;;;;;;;12238620;29;8853;-49
2021/01/12 05:32:44;;;;;;;;;53.33;45.33;;;;;;;;12248469;29;8857;-49
2021/01/12 05:38:47;;;;;;;;;52.67;44.33;;;;;;;;12239266;29;9594;-47
2021/01/12 05:44:49;;;;;;;;;62.67;50.33;;;;;;;;12238262;29;9668;-46
2021/01/12 05:50:56;;;;;;;;;49.67;45.00;;;;;;;;12237267;29;8863;-49
2021/01/12 05:56:59;;;;;;;;;46.00;41.33;;;;;;;;12238847;29;8869;-47
2021/01/12 06:03:02;;;;;;;;;54.00;48.00;;;;;;;;12225864;29;8873;-46
2021/01/12 06:09:05;;;;;;;;;66.00;54.00;;;;;;;;12229771;29;8870;-47
2021/01/12 06:15:12;;;;;;;;;45.33;41.00;;;;;;;;12216681;29;9685;-47
2021/01/12 06:21:18;;;;;;;;;59.67;52.00;;;;;;;;12231181;29;8858;-48
2021/01/12 06:27:24;;;;;;;;;58.67;48.67;;;;;;;;12231526;29;8850;-48
2021/01/12 06:33:28;;;;;;;;;60.67;49.67;;;;;;;;12227030;29;8848;-52
2021/01/12 06:39:39;;;;;;;;;64.00;52.00;;;;;;;;12224593;29;8843;-47
2021/01/12 06:45:41;;;;;;;;;65.33;48.00;;;;;;;;12230064;29;8849;-48
2021/01/12 06:51:43;;;;;;;;;57.33;48.00;;;;;;;;12234456;29;8850;-50
2021/01/12 06:57:46;;;;;;;;;55.67;48.33;;;;;;;;12231030;29;8854;-48
2021/01/12 07:03:50;;;;;;;;;66.33;52.00;;;;;;;;12227612;29;8880;-49
2021/01/12 07:09:57;;;;;;;;;58.00;50.33;;;;;;;;12230886;29;8846;-48
2021/01/12 07:15:59;;;;;;;;;64.67;50.67;;;;;;;;12234083;29;8850;-50
2021/01/12 07:22:18;;;;;;;;;71.33;54.00;;;;;;;;12233893;29;8838;-48
2021/01/12 07:28:22;;;;;;;;;62.67;50.67;;;;;;;;12228257;29;8845;-46
2021/01/12 07:34:25;;;;;;;;;55.33;47.67;;;;;;;;12234150;29;8851;-46
2021/01/12 07:40:26;;;;;;;;;88.33;64.33;;;;;;;;12225738;29;8881;-46
2021/01/12 07:46:28;;;;;;;;;67.00;52.00;;;;;;;;12225439;29;8868;-47
2021/01/12 07:52:29;;;;;;;;;66.25;49.50;;;;;;;;12218258;29;8866;-48
2021/01/12 07:58:31;;;;;;;;;59.50;48.75;;;;;;;;12222125;29;8860;-51
2021/01/12 08:04:33;;;;;;;;;42.75;41.75;;;;;;;;12228240;29;8985;-46
2021/01/12 08:10:36;;;;;;;;;69.00;54.00;;;;;;;;12223098;29;9817;-46
2021/01/12 08:16:39;;;;;;;;;60.33;49.67;;;;;;;;12213812;29;9260;-45
2021/01/12 08:22:47;;;;;;;;;59.00;48.75;;;;;;;;12204127;29;8858;-49
2021/01/12 08:28:48;;;;;;;;;60.25;48.25;;;;;;;;12221728;29;8858;-50
2021/01/12 08:35:02;;;;;;;;;62.67;49.00;;;;;;;;12227633;29;8838;-47
2021/01/12 08:41:06;;;;;;;;;51.33;45.00;;;;;;;;12223452;29;8912;-47
2021/01/12 08:47:12;;;;;;;;;58.75;48.75;;;;;;;;12224036;29;8842;-46
2021/01/12 08:53:17;;;;;;;;;67.50;54.25;;;;;;;;12224095;29;8878;-49
2021/01/12 08:59:26;;;;;;;;;60.67;51.33;;;;;;;;12222123;29;9741;-49
2021/01/12 09:05:36;;;;;;;;;66.25;53.00;;;;;;;;12226048;29;9741;-51
2021/01/12 09:11:46;;;;;;;;;67.00;54.50;;;;;;;;12223445;29;8850;-48
2021/01/12 09:17:47;;;;;;;;;64.75;51.00;;;;;;;;12224164;29;8830;-50
2021/01/12 09:23:49;;;;;;;;;62.50;50.50;;;;;;;;12276616;28;8872;-49
2021/01/12 09:29:50;;;;;;;;;65.25;50.75;;;;;;;;12276504;28;8931;-48
2021/01/12 09:36:13;;;;;;;;;67.00;52.00;;;;;;;;12282233;28;8876;-48
2021/01/12 09:42:18;;;;;;;;;70.00;52.50;;;;;;;;12281348;28;8840;-46
2021/01/12 09:48:20;;;;;;;;;39.50;33.25;;;;;;;;12287430;28;8950;-49
2021/01/12 09:54:21;;;;;;;;;67.00;51.00;;;;;;;;12267531;28;8981;-47
2021/01/12 10:00:24;;;;;;;;;71.50;54.75;;;;;;;;12286211;28;8874;-51
2021/01/12 10:06:29;;;;;;;;;68.33;55.00;;;;;;;;12254691;29;8870;-52
2021/01/12 10:12:32;;;;;;;;;75.00;55.00;;;;;;;;12272465;28;8878;-47
2021/01/12 10:18:34;;;;;;;;;72.00;54.33;;;;;;;;12275116;28;8863;-50
2021/01/12 10:24:35;;;;;;;;;74.00;58.67;;;;;;;;12269494;28;8846;-52
2021/01/12 10:30:37;;;;;;;;;70.33;56.67;;;;;;;;12277731;28;8852;-49
2021/01/12 10:36:42;;;;;;;;;70.67;58.33;;;;;;;;12262210;28;9373;-48
2021/01/12 10:42:45;;;;;;;;;68.25;55.25;;;;;;;;12274847;28;8938;-48
2021/01/12 10:48:46;;;;;;;;;63.00;52.75;;;;;;;;12279541;28;8891;-48
2021/01/12 10:54:48;;;;;;;;;73.25;53.00;;;;;;;;12269137;28;8850;-47
2021/01/12 11:00:51;;;;;;;;;77.33;59.00;;;;;;;;12273692;28;8860;-46
2021/01/12 11:07:01;;;;;;;;;54.25;49.25;;;;;;;;12272056;28;8966;-48
2021/01/12 11:13:06;;;;;;;;;66.00;54.25;;;;;;;;12271291;28;8868;-50
2021/01/12 11:19:08;;;;;;;;;71.25;53.00;;;;;;;;12275490;28;8845;-48
2021/01/12 11:25:12;;;;;;;;;73.00;54.00;;;;;;;;12274859;28;8844;-50
2021/01/12 11:31:17;;;;;;;;;72.00;57.67;;;;;;;;12279980;28;8856;-49
2021/01/12 11:37:19;;;;;;;;;67.50;53.75;;;;;;;;12279412;28;8836;-47
2021/01/12 11:43:20;;;;;;;;;54.75;47.25;;;;;;;;12281227;28;8856;-46
2021/01/12 11:49:21;;;;;;;;;64.00;50.33;;;;;;;;12277813;29;8838;-47
2021/01/12 11:55:23;;;;;;;;;71.50;55.00;;;;;;;;12277342;28;8942;-49
2021/01/12 12:01:25;;;;;;;;;70.00;55.33;;;;;;;;12279335;28;8844;-46
2021/01/12 12:07:26;;;;;;;;;66.50;51.50;;;;;;;;12273624;28;8861;-48
2021/01/12 12:13:28;;;;;;;;;63.75;49.50;;;;;;;;12270409;29;8855;-49
2021/01/12 12:19:30;;;;;;;;;67.00;52.00;;;;;;;;12264066;29;8876;-47
2021/01/12 12:25:31;;;;;;;;;72.33;57.67;;;;;;;;12270038;28;8856;-51
2021/01/12 12:31:37;;;;;;;;;66.75;53.75;;;;;;;;12273252;29;8958;-49
2021/01/12 12:37:39;;;;;;;;;66.75;53.50;;;;;;;;12268917;29;8846;-48
2021/01/12 12:43:42;;;;;;;;;61.75;52.50;;;;;;;;12274915;29;8840;-47
2021/01/12 12:49:43;;;;;;;;;71.25;56.25;;;;;;;;12275014;29;8866;-48
2021/01/12 12:55:45;;;;;;;;;73.00;58.75;;;;;;;;12275949;28;8844;-51
2021/01/12 13:01:51;;;;;;;;;70.00;53.25;;;;;;;;12280774;28;8859;-48
2021/01/12 13:07:52;;;;;;;;;64.75;51.75;;;;;;;;12280592;28;8828;-51
2021/01/12 13:13:55;;;;;;;;;64.25;52.00;;;;;;;;12285455;28;8916;-49
2021/01/12 13:20:05;;;;;;;;;62.00;51.75;;;;;;;;12284377;28;8871;-51
2021/01/12 13:26:07;;;;;;;;;44.25;39.50;;;;;;;;12284582;28;8891;-50
2021/01/12 13:32:11;;;;;;;;;63.25;48.50;;;;;;;;12279412;28;8864;-48
2021/01/12 13:38:13;;;;;;;;;56.50;45.00;;;;;;;;12278987;28;9638;-50
2021/01/12 13:44:14;;;;;;;;;68.75;57.00;;;;;;;;12279316;28;8966;-52
2021/01/12 13:50:16;;;;;;;;;67.75;54.00;;;;;;;;12281810;28;8859;-49
2021/01/12 13:56:24;;;;;;;;;72.25;57.00;;;;;;;;12283947;28;8891;-51
2021/01/12 14:02:28;;;;;;;;;62.00;51.50;;;;;;;;12285226;28;8858;-50
2021/01/12 14:08:29;;;;;;;;;71.25;55.75;;;;;;;;12278026;28;8856;-48
2021/01/12 14:14:31;;;;;;;;;74.50;57.00;;;;;;;;12285708;28;8924;-49
2021/01/12 14:20:34;;;;;;;;;78.50;57.00;;;;;;;;12272581;28;9287;-51
2021/01/12 14:26:36;;;;;;;;;68.25;51.00;;;;;;;;12278220;28;8867;-52
2021/01/12 14:32:38;;;;;;;;;68.50;54.25;;;;;;;;12261651;28;8846;-52
2021/01/12 14:38:45;;;;;;;;;75.00;54.00;;;;;;;;12276748;28;8855;-50
2021/01/12 14:44:47;;;;;;;;;67.50;50.50;;;;;;;;12273518;28;8844;-49
2021/01/12 14:50:48;;;;;;;;;73.67;56.67;;;;;;;;12274126;28;8842;-52
2021/01/12 14:56:50;;;;;;;;;70.00;52.67;;;;;;;;12279746;28;8844;-50
2021/01/12 15:02:51;;;;;;;;;60.75;52.00;;;;;;;;12275113;28;8935;-50
2021/01/12 15:08:52;;;;;;;;;65.25;52.00;;;;;;;;12279740;28;8844;-49
2021/01/12 15:14:54;;;;;;;;;73.67;55.33;;;;;;;;12277396;28;9668;-50
2021/01/12 15:20:58;;;;;;;;;61.33;51.00;;;;;;;;12277907;28;9669;-48
2021/01/12 15:27:00;;;;;;;;;69.67;56.33;;;;;;;;12279415;28;8840;-50
2021/01/12 15:33:01;;;;;;;;;60.33;45.33;;;;;;;;12278769;28;9624;-47
2021/01/12 15:39:06;;;;;;;;;52.00;43.67;;;;;;;;12280715;28;8935;-50
2021/01/12 15:45:08;;;;;;;;;67.00;53.33;;;;;;;;12278630;28;8840;-48
2021/01/12 15:51:10;;;;;;;;;64.33;50.00;;;;;;;;12279334;28;8868;-51
2021/01/12 15:57:12;;;;;;;;;67.00;49.00;;;;;;;;12280279;28;8848;-52
2021/01/12 16:03:16;;;;;;;;;68.67;54.00;;;;;;;;12262131;28;8875;-49
2021/01/12 16:09:18;;;;;;;;;57.00;48.67;;;;;;;;12287543;28;8844;-51
2021/01/12 16:15:24;;;;;;;;;60.33;49.00;;;;;;;;12279640;29;8856;-50
2021/01/12 16:21:33;;;;;;;;;47.33;45.00;;;;;;;;12251577;29;8863;-49
2021/01/12 16:27:36;;;;;;;;;51.33;45.00;;;;;;;;12265473;28;8844;-48
2021/01/12 16:33:39;;;;;;;;;69.33;52.00;;;;;;;;12278841;28;8944;-49
2021/01/12 16:39:45;;;;;;;;;60.33;48.00;;;;;;;;12266840;28;8864;-49
2021/01/12 16:45:53;;;;;;;;;41.00;38.75;;;;;;;;12264538;28;8854;-48
2021/01/12 16:52:14;;;;;;;;;64.00;52.67;;;;;;;;12285857;28;8863;-49
2021/01/12 16:58:32;;;;;;;;;70.00;54.67;;;;;;;;12260501;29;9666;-49
2021/01/12 17:04:34;;;;;;;;;61.33;46.67;;;;;;;;12259972;28;8884;-49
2021/01/12 17:10:36;;;;;;;;;59.33;49.00;;;;;;;;12281849;28;8854;-46
2021/01/12 17:16:44;;;;;;;;;61.33;49.00;;;;;;;;12267669;28;8852;-48
2021/01/12 17:22:58;;;;;;;;;64.25;50.75;;;;;;;;12267874;28;8934;-48
2021/01/12 17:29:00;;;;;;;;;57.67;48.67;;;;;;;;12262543;28;8915;-50
2021/01/12 17:35:07;;;;;;;;;55.75;47.00;;;;;;;;12269448;28;8852;-47
2021/01/12 17:41:10;;;;;;;;;59.25;45.00;;;;;;;;12275453;28;8868;-51
2021/01/12 17:47:23;;;;;;;;;60.33;48.67;;;;;;;;12268740;28;8852;-48
2021/01/12 17:53:36;;;;;;;;;57.67;48.00;;;;;;;;12281083;29;8866;-48
2021/01/12 18:00:01;;;;;;;;;62.33;47.00;;;;;;;;12274383;28;8844;-47
2021/01/12 18:06:23;;;;;;;;;52.00;44.33;;;;;;;;12285231;28;8860;-48
2021/01/12 18:12:26;;;;;;;;;51.33;45.33;;;;;;;;12285788;28;8986;-49
2021/01/12 18:18:28;;;;;;;;;47.50;42.50;;;;;;;;12270503;29;8874;-51
2021/01/12 18:24:33;;;;;;;;;52.50;44.50;;;;;;;;12269056;28;8836;-46
2021/01/12 18:30:43;;;;;;;;;42.50;40.00;;;;;;;;12260544;28;8836;-48
2021/01/12 18:36:57;;;;;;;;;45.00;42.25;;;;;;;;12261908;28;8854;-47
2021/01/12 18:42:59;;;;;;;;;47.00;39.50;;;;;;;;12246363;28;8856;-48
2021/01/12 18:49:01;;;;;;;;;46.00;39.50;;;;;;;;12276507;28;8879;-50
2021/01/12 18:55:06;;;;;;;;;45.25;39.50;;;;;;;;12277325;28;8855;-49
2021/01/12 19:01:08;;;;;;;;;41.75;40.25;;;;;;;;12265957;28;8857;-52
2021/01/12 19:07:11;;;;;;;;;51.50;40.50;;;;;;;;12275747;28;8848;-49
2021/01/12 19:13:13;;;;;;;;;43.75;40.75;;;;;;;;12279137;28;8866;-51
2021/01/12 19:19:15;;;;;;;;;42.00;38.75;;;;;;;;12279166;28;8855;-47
2021/01/12 19:25:18;;;;;;;;;52.50;40.50;;;;;;;;12278672;28;8836;-47
2021/01/12 19:31:20;;;;;;;;;40.75;35.00;;;;;;;;12276720;29;8839;-50
2021/01/12 19:37:34;;;;;;;;;31.50;29.25;;;;;;;;12272683;28;9614;-50
2021/01/12 19:43:36;;;;;;;;;30.50;30.25;;;;;;;;12279312;28;8844;-47
2021/01/12 19:49:38;;;;;;;;;28.00;26.50;;;;;;;;12280495;28;9621;-49
2021/01/12 19:55:40;;;;;;;;;39.50;33.00;;;;;;;;12279917;28;8940;-48
2021/01/12 20:01:43;;;;;;;;;41.75;35.50;;;;;;;;12278098;28;8869;-48
2021/01/12 20:07:45;;;;;;;;;43.25;35.00;;;;;;;;12280071;28;8950;-45
2021/01/12 20:13:47;;;;;;;;;39.75;36.75;;;;;;;;12280696;28;8852;-47
2021/01/12 20:19:55;;;;;;;;;43.75;36.50;;;;;;;;12282080;29;8832;-49
2021/01/12 20:26:01;;;;;;;;;31.00;31.00;;;;;;;;12280723;29;9656;-50
2021/01/12 20:32:06;;;;;;;;;41.00;35.50;;;;;;;;12271647;28;8852;-47
2021/01/12 20:38:08;;;;;;;;;38.00;36.50;;;;;;;;12273896;29;8832;-48
2021/01/12 20:44:18;;;;;;;;;38.75;35.00;;;;;;;;12270244;28;8865;-46
2021/01/12 20:50:20;;;;;;;;;38.25;32.75;;;;;;;;12279668;29;8871;-47
2021/01/12 20:56:22;;;;;;;;;34.50;33.00;;;;;;;;12272645;29;8899;-47
2021/01/12 21:02:24;;;;;;;;;41.50;33.25;;;;;;;;12275494;28;8896;-46
2021/01/12 21:08:26;;;;;;;;;38.50;34.00;;;;;;;;12275145;29;8911;-47
2021/01/12 21:14:27;;;;;;;;;28.25;27.00;;;;;;;;12272672;28;8843;-48
2021/01/12 21:20:28;;;;;;;;;41.00;31.75;;;;;;;;12284977;28;8844;-48
2021/01/12 21:26:40;;;;;;;;;32.00;27.25;;;;;;;;12281971;28;8843;-47
2021/01/12 21:32:46;;;;;;;;;33.50;30.50;;;;;;;;12280187;28;8864;-48
2021/01/12 21:38:51;;;;;;;;;35.00;33.00;;;;;;;;12284489;28;8849;-47
2021/01/12 21:44:52;;;;;;;;;32.25;29.75;;;;;;;;12280684;28;8824;-49
2021/01/12 21:50:54;;;;;;;;;31.50;26.00;;;;;;;;12284486;28;8872;-50
2021/01/12 21:56:56;;;;;;;;;38.00;35.75;;;;;;;;12283526;28;8833;-49
2021/01/12 22:02:57;;;;;;;;;37.00;35.50;;;;;;;;12286131;28;8856;-47
2021/01/12 22:08:58;;;;;;;;;42.25;38.75;;;;;;;;12285068;28;8911;-51
2021/01/12 22:15:00;;;;;;;;;39.25;32.75;;;;;;;;12282872;28;8844;-47
2021/01/12 22:21:02;;;;;;;;;38.75;31.25;;;;;;;;12286016;28;8833;-46
2021/01/12 22:27:04;;;;;;;;;32.00;30.25;;;;;;;;12279634;28;8869;-49
2021/01/12 22:33:07;;;;;;;;;36.25;28.75;;;;;;;;12276361;28;8844;-50
2021/01/12 22:39:09;;;;;;;;;36.00;29.00;;;;;;;;12277224;28;8849;-49
2021/01/12 22:45:12;;;;;;;;;33.25;27.25;;;;;;;;12276587;28;8959;-51
2021/01/12 22:51:13;;;;;;;;;29.00;24.00;;;;;;;;12277808;28;8868;-49
2021/01/12 22:57:14;;;;;;;;;34.25;28.75;;;;;;;;12273533;29;8846;-50
2021/01/12 23:03:16;;;;;;;;;40.75;32.75;;;;;;;;12279026;28;8848;-50
2021/01/12 23:09:22;;;;;;;;;31.00;27.50;;;;;;;;12276182;28;8910;-47
2021/01/12 23:15:25;;;;;;;;;35.50;30.25;;;;;;;;12279064;28;8867;-50
2021/01/12 23:21:26;;;;;;;;;37.00;34.50;;;;;;;;12278416;28;8875;-46
2021/01/12 23:27:27;;;;;;;;;34.50;28.75;;;;;;;;12272888;29;8923;-48
2021/01/12 23:33:29;;;;;;;;;35.75;31.50;;;;;;;;12279862;28;9243;-47
2021/01/12 23:39:30;;;;;;;;;28.75;24.00;;;;;;;;12277294;28;8871;-48
2021/01/12 23:45:35;;;;;;;;;44.75;36.75;;;;;;;;12278018;28;8947;-47
2021/01/12 23:51:40;;;;;;;;;39.50;35.00;;;;;;;;12279104;28;8923;-45
2021/01/12 23:57:42;;;;;;;;;35.00;31.50;;;;;;;;12274353;28;8850;-50
